sensor_id;sensor_type;location;lat;lon;timestamp;P1;durP1;ratioP1;P2;durP2;ratioP2
80193;SDS011;69515;42.072;21.504;2023-10-19T00:00:39;4.68;;;2.00;;
80193;SDS011;69515;42.072;21.504;2023-10-19T00:03:06;4.35;;;1.90;;
80193;SDS011;69515;42.072;21.504;2023-10-19T00:05:32;3.60;;;1.95;;
80193;SDS011;69515;42.072;21.504;2023-10-19T00:08:02;4.60;;;2.17;;
80193;SDS011;69515;42.072;21.504;2023-10-19T00:10:41;4.20;;;1.90;;
80193;SDS011;69515;42.072;21.504;2023-10-19T00:13:14;4.30;;;2.20;;
80193;SDS011;69515;42.072;21.504;2023-10-19T00:15:44;3.75;;;2.05;;
80193;SDS011;69515;42.072;21.504;2023-10-19T00:18:16;3.97;;;2.08;;
80193;SDS011;69515;42.072;21.504;2023-10-19T00:20:43;4.25;;;2.05;;
80193;SDS011;69515;42.072;21.504;2023-10-19T00:23:29;4.10;;;2.15;;
80193;SDS011;69515;42.072;21.504;2023-10-19T00:26:01;4.30;;;2.20;;
80193;SDS011;69515;42.072;21.504;2023-10-19T00:28:34;4.72;;;2.25;;
80193;SDS011;69515;42.072;21.504;2023-10-19T00:31:04;4.28;;;2.20;;
80193;SDS011;69515;42.072;21.504;2023-10-19T00:33:34;3.95;;;2.20;;
80193;SDS011;69515;42.072;21.504;2023-10-19T00:36:04;3.58;;;1.83;;
80193;SDS011;69515;42.072;21.504;2023-10-19T00:38:34;4.32;;;2.45;;
80193;SDS011;69515;42.072;21.504;2023-10-19T00:41:00;3.70;;;2.20;;
80193;SDS011;69515;42.072;21.504;2023-10-19T00:43:40;4.47;;;2.40;;
80193;SDS011;69515;42.072;21.504;2023-10-19T00:46:13;4.72;;;2.28;;
80193;SDS011;69515;42.072;21.504;2023-10-19T00:48:55;4.75;;;2.17;;
80193;SDS011;69515;42.072;21.504;2023-10-19T00:51:29;6.55;;;2.50;;
80193;SDS011;69515;42.072;21.504;2023-10-19T00:57:03;4.20;;;2.00;;
80193;SDS011;69515;42.072;21.504;2023-10-19T01:02:43;4.28;;;1.90;;
80193;SDS011;69515;42.072;21.504;2023-10-19T01:05:11;4.40;;;2.22;;
80193;SDS011;69515;42.072;21.504;2023-10-19T01:07:40;5.32;;;2.40;;
80193;SDS011;69515;42.072;21.504;2023-10-19T01:10:07;4.18;;;2.10;;
80193;SDS011;69515;42.072;21.504;2023-10-19T01:12:33;4.85;;;2.20;;
80193;SDS011;69515;42.072;21.504;2023-10-19T01:15:07;4.60;;;2.10;;
80193;SDS011;69515;42.072;21.504;2023-10-19T01:17:43;4.80;;;2.30;;
80193;SDS011;69515;42.072;21.504;2023-10-19T01:20:13;4.65;;;2.30;;
80193;SDS011;69515;42.072;21.504;2023-10-19T01:25:19;4.53;;;2.33;;
80193;SDS011;69515;42.072;21.504;2023-10-19T01:27:50;4.25;;;2.42;;
80193;SDS011;69515;42.072;21.504;2023-10-19T01:30:23;4.35;;;2.13;;
80193;SDS011;69515;42.072;21.504;2023-10-19T01:32:49;4.80;;;2.65;;
80193;SDS011;69515;42.072;21.504;2023-10-19T01:35:17;4.05;;;2.20;;
80193;SDS011;69515;42.072;21.504;2023-10-19T01:37:43;5.07;;;2.40;;
80193;SDS011;69515;42.072;21.504;2023-10-19T01:40:09;4.40;;;2.53;;
80193;SDS011;69515;42.072;21.504;2023-10-19T01:42:40;3.90;;;2.00;;
80193;SDS011;69515;42.072;21.504;2023-10-19T01:45:07;4.15;;;2.42;;
80193;SDS011;69515;42.072;21.504;2023-10-19T01:47:36;5.10;;;2.60;;
80193;SDS011;69515;42.072;21.504;2023-10-19T01:50:06;4.13;;;2.35;;
80193;SDS011;69515;42.072;21.504;2023-10-19T01:52:38;4.00;;;2.30;;
80193;SDS011;69515;42.072;21.504;2023-10-19T01:55:04;3.90;;;2.30;;
80193;SDS011;69515;42.072;21.504;2023-10-19T01:57:34;4.38;;;2.40;;
80193;SDS011;69515;42.072;21.504;2023-10-19T02:00:00;5.15;;;2.42;;
80193;SDS011;69515;42.072;21.504;2023-10-19T02:02:36;5.07;;;2.35;;
80193;SDS011;69515;42.072;21.504;2023-10-19T02:05:02;4.75;;;2.35;;
80193;SDS011;69515;42.072;21.504;2023-10-19T02:07:30;5.47;;;2.60;;
80193;SDS011;69515;42.072;21.504;2023-10-19T02:09:58;4.53;;;2.53;;
80193;SDS011;69515;42.072;21.504;2023-10-19T02:12:24;5.13;;;2.60;;
80193;SDS011;69515;42.072;21.504;2023-10-19T02:14:50;5.88;;;2.40;;
80193;SDS011;69515;42.072;21.504;2023-10-19T02:17:16;3.78;;;2.22;;
80193;SDS011;69515;42.072;21.504;2023-10-19T02:19:43;3.60;;;2.08;;
80193;SDS011;69515;42.072;21.504;2023-10-19T02:22:09;5.47;;;2.30;;
80193;SDS011;69515;42.072;21.504;2023-10-19T02:24:37;4.20;;;2.40;;
80193;SDS011;69515;42.072;21.504;2023-10-19T02:27:04;4.72;;;2.42;;
80193;SDS011;69515;42.072;21.504;2023-10-19T02:29:30;4.22;;;2.13;;
80193;SDS011;69515;42.072;21.504;2023-10-19T02:31:57;4.15;;;2.00;;
80193;SDS011;69515;42.072;21.504;2023-10-19T02:34:29;4.32;;;2.10;;
80193;SDS011;69515;42.072;21.504;2023-10-19T02:36:55;4.05;;;2.10;;
80193;SDS011;69515;42.072;21.504;2023-10-19T02:39:21;4.07;;;1.95;;
80193;SDS011;69515;42.072;21.504;2023-10-19T02:41:53;4.63;;;2.53;;
80193;SDS011;69515;42.072;21.504;2023-10-19T02:44:26;4.05;;;2.08;;
80193;SDS011;69515;42.072;21.504;2023-10-19T02:46:55;3.90;;;2.17;;
80193;SDS011;69515;42.072;21.504;2023-10-19T02:49:25;3.90;;;2.00;;
80193;SDS011;69515;42.072;21.504;2023-10-19T02:51:52;5.20;;;2.13;;
80193;SDS011;69515;42.072;21.504;2023-10-19T02:54:19;4.32;;;2.10;;
80193;SDS011;69515;42.072;21.504;2023-10-19T02:56:53;4.95;;;2.00;;
80193;SDS011;69515;42.072;21.504;2023-10-19T02:59:22;3.80;;;2.10;;
80193;SDS011;69515;42.072;21.504;2023-10-19T03:01:49;5.72;;;2.28;;
80193;SDS011;69515;42.072;21.504;2023-10-19T03:04:15;3.72;;;1.85;;
80193;SDS011;69515;42.072;21.504;2023-10-19T03:06:42;4.20;;;2.13;;
80193;SDS011;69515;42.072;21.504;2023-10-19T03:09:09;4.35;;;2.17;;
80193;SDS011;69515;42.072;21.504;2023-10-19T03:11:41;4.30;;;2.53;;
80193;SDS011;69515;42.072;21.504;2023-10-19T03:14:09;5.15;;;2.28;;
80193;SDS011;69515;42.072;21.504;2023-10-19T03:16:39;4.70;;;2.65;;
80193;SDS011;69515;42.072;21.504;2023-10-19T03:19:08;4.10;;;2.30;;
80193;SDS011;69515;42.072;21.504;2023-10-19T03:21:35;5.22;;;2.50;;
80193;SDS011;69515;42.072;21.504;2023-10-19T03:24:14;5.22;;;2.50;;
80193;SDS011;69515;42.072;21.504;2023-10-19T03:26:51;6.00;;;2.53;;
80193;SDS011;69515;42.072;21.504;2023-10-19T03:29:19;4.75;;;2.58;;
80193;SDS011;69515;42.072;21.504;2023-10-19T03:31:57;5.65;;;3.03;;
80193;SDS011;69515;42.072;21.504;2023-10-19T03:34:26;5.32;;;2.60;;
80193;SDS011;69515;42.072;21.504;2023-10-19T03:36:57;7.07;;;2.75;;
80193;SDS011;69515;42.072;21.504;2023-10-19T03:39:27;5.45;;;2.72;;
80193;SDS011;69515;42.072;21.504;2023-10-19T03:41:53;6.05;;;2.90;;
80193;SDS011;69515;42.072;21.504;2023-10-19T03:44:19;4.15;;;2.80;;
80193;SDS011;69515;42.072;21.504;2023-10-19T03:46:49;5.90;;;2.65;;
80193;SDS011;69515;42.072;21.504;2023-10-19T03:49:20;5.60;;;2.75;;
80193;SDS011;69515;42.072;21.504;2023-10-19T03:51:47;4.88;;;2.70;;
80193;SDS011;69515;42.072;21.504;2023-10-19T03:54:45;5.05;;;2.75;;
80193;SDS011;69515;42.072;21.504;2023-10-19T03:57:13;5.10;;;2.78;;
80193;SDS011;69515;42.072;21.504;2023-10-19T03:59:49;4.90;;;3.00;;
80193;SDS011;69515;42.072;21.504;2023-10-19T04:02:21;7.55;;;3.20;;
80193;SDS011;69515;42.072;21.504;2023-10-19T04:04:48;4.50;;;2.75;;
80193;SDS011;69515;42.072;21.504;2023-10-19T04:07:17;5.28;;;2.90;;
80193;SDS011;69515;42.072;21.504;2023-10-19T04:09:53;4.88;;;2.72;;
80193;SDS011;69515;42.072;21.504;2023-10-19T04:12:33;6.28;;;3.08;;
80193;SDS011;69515;42.072;21.504;2023-10-19T04:15:03;4.68;;;2.90;;
80193;SDS011;69515;42.072;21.504;2023-10-19T04:17:45;4.85;;;2.72;;
80193;SDS011;69515;42.072;21.504;2023-10-19T04:20:12;5.40;;;3.00;;
80193;SDS011;69515;42.072;21.504;2023-10-19T04:22:47;4.88;;;2.60;;
80193;SDS011;69515;42.072;21.504;2023-10-19T04:25:15;5.40;;;2.70;;
80193;SDS011;69515;42.072;21.504;2023-10-19T04:27:42;5.55;;;3.30;;
80193;SDS011;69515;42.072;21.504;2023-10-19T04:30:08;5.18;;;2.65;;
80193;SDS011;69515;42.072;21.504;2023-10-19T04:32:41;4.75;;;2.85;;
80193;SDS011;69515;42.072;21.504;2023-10-19T04:35:07;5.03;;;3.13;;
80193;SDS011;69515;42.072;21.504;2023-10-19T04:37:38;5.50;;;3.17;;
80193;SDS011;69515;42.072;21.504;2023-10-19T04:40:08;5.88;;;2.90;;
80193;SDS011;69515;42.072;21.504;2023-10-19T04:42:34;5.25;;;3.20;;
80193;SDS011;69515;42.072;21.504;2023-10-19T04:45:02;5.60;;;3.20;;
80193;SDS011;69515;42.072;21.504;2023-10-19T04:47:28;4.30;;;2.53;;
80193;SDS011;69515;42.072;21.504;2023-10-19T04:49:54;4.68;;;2.60;;
80193;SDS011;69515;42.072;21.504;2023-10-19T04:52:21;5.93;;;2.85;;
80193;SDS011;69515;42.072;21.504;2023-10-19T04:54:47;6.90;;;3.17;;
80193;SDS011;69515;42.072;21.504;2023-10-19T04:57:13;6.65;;;2.75;;
80193;SDS011;69515;42.072;21.504;2023-10-19T04:59:39;5.05;;;2.55;;
80193;SDS011;69515;42.072;21.504;2023-10-19T05:02:10;6.45;;;2.83;;
80193;SDS011;69515;42.072;21.504;2023-10-19T05:04:36;4.55;;;2.95;;
80193;SDS011;69515;42.072;21.504;2023-10-19T05:07:03;4.85;;;2.80;;
80193;SDS011;69515;42.072;21.504;2023-10-19T05:09:32;5.75;;;2.70;;
80193;SDS011;69515;42.072;21.504;2023-10-19T05:11:58;4.57;;;2.60;;
80193;SDS011;69515;42.072;21.504;2023-10-19T05:14:24;5.05;;;2.88;;
80193;SDS011;69515;42.072;21.504;2023-10-19T05:16:50;4.97;;;2.70;;
80193;SDS011;69515;42.072;21.504;2023-10-19T05:19:17;5.53;;;2.75;;
80193;SDS011;69515;42.072;21.504;2023-10-19T05:21:43;4.50;;;2.70;;
80193;SDS011;69515;42.072;21.504;2023-10-19T05:24:10;5.90;;;2.72;;
80193;SDS011;69515;42.072;21.504;2023-10-19T05:26:37;5.85;;;3.30;;
80193;SDS011;69515;42.072;21.504;2023-10-19T05:29:03;6.75;;;2.75;;
80193;SDS011;69515;42.072;21.504;2023-10-19T05:31:29;4.97;;;2.83;;
80193;SDS011;69515;42.072;21.504;2023-10-19T05:33:56;8.68;;;3.78;;
80193;SDS011;69515;42.072;21.504;2023-10-19T05:36:22;6.43;;;4.03;;
80193;SDS011;69515;42.072;21.504;2023-10-19T05:38:50;6.20;;;3.17;;
80193;SDS011;69515;42.072;21.504;2023-10-19T05:41:16;5.18;;;3.00;;
80193;SDS011;69515;42.072;21.504;2023-10-19T05:43:43;5.85;;;2.70;;
80193;SDS011;69515;42.072;21.504;2023-10-19T05:46:10;5.85;;;2.53;;
80193;SDS011;69515;42.072;21.504;2023-10-19T05:48:39;4.78;;;2.70;;
80193;SDS011;69515;42.072;21.504;2023-10-19T05:51:05;6.50;;;3.20;;
80193;SDS011;69515;42.072;21.504;2023-10-19T05:53:34;5.72;;;2.97;;
80193;SDS011;69515;42.072;21.504;2023-10-19T05:56:02;5.03;;;2.50;;
80193;SDS011;69515;42.072;21.504;2023-10-19T05:58:33;6.13;;;2.63;;
80193;SDS011;69515;42.072;21.504;2023-10-19T06:01:00;4.50;;;2.50;;
80193;SDS011;69515;42.072;21.504;2023-10-19T06:03:27;6.22;;;2.70;;
80193;SDS011;69515;42.072;21.504;2023-10-19T06:05:55;4.32;;;2.72;;
80193;SDS011;69515;42.072;21.504;2023-10-19T06:08:22;5.00;;;2.90;;
80193;SDS011;69515;42.072;21.504;2023-10-19T06:10:51;5.13;;;2.88;;
80193;SDS011;69515;42.072;21.504;2023-10-19T06:13:18;6.30;;;2.90;;
80193;SDS011;69515;42.072;21.504;2023-10-19T06:15:44;6.00;;;2.97;;
80193;SDS011;69515;42.072;21.504;2023-10-19T06:18:10;5.85;;;3.10;;
80193;SDS011;69515;42.072;21.504;2023-10-19T06:20:42;5.45;;;3.17;;
80193;SDS011;69515;42.072;21.504;2023-10-19T06:23:09;3.83;;;2.33;;
80193;SDS011;69515;42.072;21.504;2023-10-19T06:25:36;5.28;;;3.08;;
80193;SDS011;69515;42.072;21.504;2023-10-19T06:28:03;5.32;;;2.63;;
80193;SDS011;69515;42.072;21.504;2023-10-19T06:30:29;4.82;;;2.53;;
80193;SDS011;69515;42.072;21.504;2023-10-19T06:32:56;4.18;;;2.10;;
80193;SDS011;69515;42.072;21.504;2023-10-19T06:35:26;3.97;;;2.38;;
80193;SDS011;69515;42.072;21.504;2023-10-19T06:37:53;5.10;;;2.65;;
80193;SDS011;69515;42.072;21.504;2023-10-19T06:40:20;5.50;;;2.40;;
80193;SDS011;69515;42.072;21.504;2023-10-19T06:42:47;4.85;;;2.55;;
80193;SDS011;69515;42.072;21.504;2023-10-19T06:45:14;4.22;;;2.45;;
80193;SDS011;69515;42.072;21.504;2023-10-19T06:47:45;4.00;;;2.45;;
80193;SDS011;69515;42.072;21.504;2023-10-19T06:50:12;5.90;;;2.85;;
80193;SDS011;69515;42.072;21.504;2023-10-19T06:52:41;8.63;;;4.13;;
80193;SDS011;69515;42.072;21.504;2023-10-19T06:55:08;5.68;;;3.08;;
80193;SDS011;69515;42.072;21.504;2023-10-19T06:57:54;5.78;;;2.90;;
80193;SDS011;69515;42.072;21.504;2023-10-19T07:00:24;4.88;;;2.92;;
80193;SDS011;69515;42.072;21.504;2023-10-19T07:02:57;7.40;;;3.13;;
80193;SDS011;69515;42.072;21.504;2023-10-19T07:05:28;4.70;;;3.03;;
80193;SDS011;69515;42.072;21.504;2023-10-19T07:07:59;4.78;;;2.65;;
80193;SDS011;69515;42.072;21.504;2023-10-19T07:10:27;6.13;;;3.20;;
80193;SDS011;69515;42.072;21.504;2023-10-19T07:12:54;4.65;;;2.47;;
80193;SDS011;69515;42.072;21.504;2023-10-19T07:15:21;4.25;;;2.38;;
80193;SDS011;69515;42.072;21.504;2023-10-19T07:17:49;4.55;;;2.58;;
80193;SDS011;69515;42.072;21.504;2023-10-19T07:20:19;3.67;;;2.00;;
80193;SDS011;69515;42.072;21.504;2023-10-19T07:22:57;4.78;;;1.92;;
80193;SDS011;69515;42.072;21.504;2023-10-19T07:25:42;4.85;;;1.90;;
80193;SDS011;69515;42.072;21.504;2023-10-19T07:28:09;3.78;;;2.00;;
80193;SDS011;69515;42.072;21.504;2023-10-19T07:30:35;9.15;;;5.05;;
80193;SDS011;69515;42.072;21.504;2023-10-19T07:33:02;5.05;;;2.60;;
80193;SDS011;69515;42.072;21.504;2023-10-19T07:35:35;5.28;;;2.40;;
80193;SDS011;69515;42.072;21.504;2023-10-19T07:38:04;7.55;;;3.17;;
80193;SDS011;69515;42.072;21.504;2023-10-19T07:40:33;5.30;;;2.55;;
80193;SDS011;69515;42.072;21.504;2023-10-19T07:42:59;4.78;;;2.22;;
80193;SDS011;69515;42.072;21.504;2023-10-19T07:45:26;7.50;;;3.05;;
80193;SDS011;69515;42.072;21.504;2023-10-19T07:47:52;4.80;;;2.55;;
80193;SDS011;69515;42.072;21.504;2023-10-19T07:50:19;5.07;;;2.70;;
80193;SDS011;69515;42.072;21.504;2023-10-19T07:52:49;4.70;;;2.58;;
80193;SDS011;69515;42.072;21.504;2023-10-19T07:55:16;5.55;;;2.80;;
80193;SDS011;69515;42.072;21.504;2023-10-19T07:57:43;5.63;;;2.95;;
80193;SDS011;69515;42.072;21.504;2023-10-19T08:00:10;5.10;;;2.53;;
80193;SDS011;69515;42.072;21.504;2023-10-19T08:02:40;4.90;;;2.53;;
80193;SDS011;69515;42.072;21.504;2023-10-19T08:05:07;4.05;;;2.40;;
80193;SDS011;69515;42.072;21.504;2023-10-19T08:07:36;4.53;;;2.60;;
80193;SDS011;69515;42.072;21.504;2023-10-19T08:10:05;4.75;;;2.80;;
80193;SDS011;69515;42.072;21.504;2023-10-19T08:12:34;4.70;;;2.70;;
80193;SDS011;69515;42.072;21.504;2023-10-19T08:15:01;5.32;;;2.90;;
80193;SDS011;69515;42.072;21.504;2023-10-19T08:17:29;4.28;;;2.20;;
80193;SDS011;69515;42.072;21.504;2023-10-19T08:19:56;4.22;;;2.58;;
80193;SDS011;69515;42.072;21.504;2023-10-19T08:22:22;4.53;;;2.72;;
80193;SDS011;69515;42.072;21.504;2023-10-19T08:24:49;4.00;;;2.22;;
80193;SDS011;69515;42.072;21.504;2023-10-19T08:27:17;4.10;;;2.40;;
80193;SDS011;69515;42.072;21.504;2023-10-19T08:29:43;5.50;;;2.58;;
80193;SDS011;69515;42.072;21.504;2023-10-19T08:32:09;4.22;;;2.53;;
80193;SDS011;69515;42.072;21.504;2023-10-19T08:34:36;4.82;;;2.72;;
80193;SDS011;69515;42.072;21.504;2023-10-19T08:37:03;4.45;;;2.50;;
80193;SDS011;69515;42.072;21.504;2023-10-19T08:39:32;5.72;;;3.03;;
80193;SDS011;69515;42.072;21.504;2023-10-19T08:42:02;5.47;;;2.38;;
80193;SDS011;69515;42.072;21.504;2023-10-19T08:44:29;4.15;;;2.40;;
80193;SDS011;69515;42.072;21.504;2023-10-19T08:46:56;5.18;;;2.60;;
80193;SDS011;69515;42.072;21.504;2023-10-19T08:49:22;4.88;;;2.83;;
80193;SDS011;69515;42.072;21.504;2023-10-19T08:51:49;5.18;;;3.05;;
80193;SDS011;69515;42.072;21.504;2023-10-19T08:54:17;9.32;;;3.50;;
80193;SDS011;69515;42.072;21.504;2023-10-19T08:56:43;5.07;;;3.00;;
80193;SDS011;69515;42.072;21.504;2023-10-19T08:59:10;5.88;;;3.15;;
80193;SDS011;69515;42.072;21.504;2023-10-19T09:01:37;4.30;;;2.65;;
80193;SDS011;69515;42.072;21.504;2023-10-19T09:04:03;5.15;;;2.40;;
80193;SDS011;69515;42.072;21.504;2023-10-19T09:06:37;5.05;;;2.60;;
80193;SDS011;69515;42.072;21.504;2023-10-19T09:11:58;5.85;;;3.30;;
80193;SDS011;69515;42.072;21.504;2023-10-19T09:14:31;6.68;;;2.80;;
80193;SDS011;69515;42.072;21.504;2023-10-19T09:17:27;5.03;;;2.90;;
80193;SDS011;69515;42.072;21.504;2023-10-19T09:19:54;4.95;;;3.08;;
80193;SDS011;69515;42.072;21.504;2023-10-19T09:22:21;5.15;;;3.35;;
80193;SDS011;69515;42.072;21.504;2023-10-19T09:24:49;5.20;;;2.80;;
80193;SDS011;69515;42.072;21.504;2023-10-19T09:27:19;6.43;;;3.08;;
80193;SDS011;69515;42.072;21.504;2023-10-19T09:29:49;8.57;;;3.17;;
80193;SDS011;69515;42.072;21.504;2023-10-19T09:32:16;9.10;;;3.70;;
80193;SDS011;69515;42.072;21.504;2023-10-19T09:34:44;5.03;;;2.92;;
80193;SDS011;69515;42.072;21.504;2023-10-19T09:37:12;5.85;;;3.20;;
80193;SDS011;69515;42.072;21.504;2023-10-19T09:39:39;6.30;;;3.15;;
80193;SDS011;69515;42.072;21.504;2023-10-19T09:42:09;5.93;;;3.60;;
80193;SDS011;69515;42.072;21.504;2023-10-19T09:44:48;5.32;;;3.75;;
80193;SDS011;69515;42.072;21.504;2023-10-19T09:47:34;7.13;;;3.72;;
80193;SDS011;69515;42.072;21.504;2023-10-19T09:50:02;8.27;;;3.67;;
80193;SDS011;69515;42.072;21.504;2023-10-19T09:52:31;6.38;;;3.35;;
80193;SDS011;69515;42.072;21.504;2023-10-19T09:57:50;5.65;;;3.25;;
80193;SDS011;69515;42.072;21.504;2023-10-19T10:00:17;4.47;;;2.63;;
80193;SDS011;69515;42.072;21.504;2023-10-19T10:02:57;6.57;;;3.20;;
80193;SDS011;69515;42.072;21.504;2023-10-19T10:10:48;6.05;;;3.42;;
80193;SDS011;69515;42.072;21.504;2023-10-19T10:16:14;5.63;;;3.17;;
80193;SDS011;69515;42.072;21.504;2023-10-19T10:18:41;11.48;;;2.97;;
80193;SDS011;69515;42.072;21.504;2023-10-19T10:21:11;6.30;;;3.40;;
80193;SDS011;69515;42.072;21.504;2023-10-19T10:26:15;4.90;;;3.20;;
80193;SDS011;69515;42.072;21.504;2023-10-19T10:28:45;5.32;;;3.20;;
80193;SDS011;69515;42.072;21.504;2023-10-19T10:31:19;6.25;;;2.92;;
80193;SDS011;69515;42.072;21.504;2023-10-19T10:33:51;5.25;;;3.10;;
80193;SDS011;69515;42.072;21.504;2023-10-19T10:36:19;5.43;;;3.17;;
80193;SDS011;69515;42.072;21.504;2023-10-19T10:38:48;6.32;;;3.30;;
80193;SDS011;69515;42.072;21.504;2023-10-19T10:41:21;6.13;;;3.55;;
80193;SDS011;69515;42.072;21.504;2023-10-19T10:43:56;6.88;;;3.30;;
80193;SDS011;69515;42.072;21.504;2023-10-19T10:46:23;5.95;;;3.80;;
80193;SDS011;69515;42.072;21.504;2023-10-19T10:48:50;11.38;;;3.83;;
80193;SDS011;69515;42.072;21.504;2023-10-19T10:51:20;7.40;;;3.20;;
80193;SDS011;69515;42.072;21.504;2023-10-19T10:53:52;5.53;;;3.25;;
80193;SDS011;69515;42.072;21.504;2023-10-19T10:56:22;6.30;;;3.08;;
80193;SDS011;69515;42.072;21.504;2023-10-19T10:58:49;5.38;;;3.53;;
80193;SDS011;69515;42.072;21.504;2023-10-19T11:01:27;5.07;;;3.33;;
80193;SDS011;69515;42.072;21.504;2023-10-19T11:06:22;5.10;;;3.20;;
80193;SDS011;69515;42.072;21.504;2023-10-19T11:08:48;5.97;;;3.38;;
80193;SDS011;69515;42.072;21.504;2023-10-19T11:11:15;6.60;;;3.47;;
80193;SDS011;69515;42.072;21.504;2023-10-19T11:13:41;6.60;;;3.88;;
80193;SDS011;69515;42.072;21.504;2023-10-19T11:16:08;5.60;;;3.75;;
80193;SDS011;69515;42.072;21.504;2023-10-19T11:18:35;6.00;;;3.50;;
80193;SDS011;69515;42.072;21.504;2023-10-19T11:21:05;5.60;;;3.50;;
80193;SDS011;69515;42.072;21.504;2023-10-19T11:23:37;6.38;;;4.07;;
80193;SDS011;69515;42.072;21.504;2023-10-19T11:26:03;5.72;;;3.63;;
80193;SDS011;69515;42.072;21.504;2023-10-19T11:28:33;6.60;;;3.22;;
80193;SDS011;69515;42.072;21.504;2023-10-19T11:31:10;6.10;;;3.38;;
80193;SDS011;69515;42.072;21.504;2023-10-19T11:33:37;5.22;;;3.50;;
80193;SDS011;69515;42.072;21.504;2023-10-19T11:36:04;5.97;;;3.63;;
80193;SDS011;69515;42.072;21.504;2023-10-19T11:38:30;6.50;;;3.67;;
80193;SDS011;69515;42.072;21.504;2023-10-19T11:40:57;5.25;;;3.25;;
80193;SDS011;69515;42.072;21.504;2023-10-19T11:43:23;6.38;;;3.17;;
80193;SDS011;69515;42.072;21.504;2023-10-19T11:45:49;5.18;;;3.30;;
80193;SDS011;69515;42.072;21.504;2023-10-19T11:48:16;4.82;;;2.90;;
80193;SDS011;69515;42.072;21.504;2023-10-19T11:50:43;5.57;;;3.38;;
80193;SDS011;69515;42.072;21.504;2023-10-19T11:53:09;5.38;;;3.00;;
80193;SDS011;69515;42.072;21.504;2023-10-19T11:55:35;5.63;;;3.22;;
80193;SDS011;69515;42.072;21.504;2023-10-19T11:58:01;6.97;;;3.17;;
80193;SDS011;69515;42.072;21.504;2023-10-19T12:00:29;5.03;;;3.17;;
80193;SDS011;69515;42.072;21.504;2023-10-19T12:03:03;6.22;;;3.72;;
80193;SDS011;69515;42.072;21.504;2023-10-19T12:05:31;6.25;;;3.13;;
80193;SDS011;69515;42.072;21.504;2023-10-19T12:08:02;4.75;;;2.80;;
80193;SDS011;69515;42.072;21.504;2023-10-19T12:10:28;5.40;;;2.72;;
80193;SDS011;69515;42.072;21.504;2023-10-19T12:13:01;6.57;;;3.00;;
80193;SDS011;69515;42.072;21.504;2023-10-19T12:15:27;5.65;;;2.53;;
80193;SDS011;69515;42.072;21.504;2023-10-19T12:17:53;4.15;;;2.55;;
80193;SDS011;69515;42.072;21.504;2023-10-19T12:20:20;6.60;;;3.10;;
80193;SDS011;69515;42.072;21.504;2023-10-19T12:22:47;6.90;;;3.00;;
80193;SDS011;69515;42.072;21.504;2023-10-19T12:25:14;5.70;;;2.90;;
80193;SDS011;69515;42.072;21.504;2023-10-19T12:27:41;5.55;;;3.35;;
80193;SDS011;69515;42.072;21.504;2023-10-19T12:30:08;5.20;;;3.15;;
80193;SDS011;69515;42.072;21.504;2023-10-19T12:32:50;5.53;;;3.30;;
80193;SDS011;69515;42.072;21.504;2023-10-19T12:35:16;6.30;;;2.80;;
80193;SDS011;69515;42.072;21.504;2023-10-19T12:37:48;6.47;;;3.08;;
80193;SDS011;69515;42.072;21.504;2023-10-19T12:40:17;4.65;;;3.03;;
80193;SDS011;69515;42.072;21.504;2023-10-19T12:43:00;5.10;;;2.70;;
80193;SDS011;69515;42.072;21.504;2023-10-19T12:45:28;6.68;;;3.20;;
80193;SDS011;69515;42.072;21.504;2023-10-19T12:47:55;7.00;;;3.30;;
80193;SDS011;69515;42.072;21.504;2023-10-19T12:50:21;5.80;;;2.70;;
80193;SDS011;69515;42.072;21.504;2023-10-19T12:52:49;10.55;;;3.00;;
80193;SDS011;69515;42.072;21.504;2023-10-19T12:55:16;8.25;;;3.08;;
80193;SDS011;69515;42.072;21.504;2023-10-19T12:57:42;7.47;;;3.50;;
80193;SDS011;69515;42.072;21.504;2023-10-19T13:00:08;6.32;;;2.80;;
80193;SDS011;69515;42.072;21.504;2023-10-19T13:02:54;5.60;;;2.45;;
80193;SDS011;69515;42.072;21.504;2023-10-19T13:05:34;6.15;;;3.00;;
80193;SDS011;69515;42.072;21.504;2023-10-19T13:08:05;5.00;;;2.70;;
80193;SDS011;69515;42.072;21.504;2023-10-19T13:10:32;4.53;;;2.70;;
80193;SDS011;69515;42.072;21.504;2023-10-19T13:13:02;4.40;;;2.60;;
80193;SDS011;69515;42.072;21.504;2023-10-19T13:15:29;4.30;;;2.67;;
80193;SDS011;69515;42.072;21.504;2023-10-19T13:17:56;8.23;;;4.45;;
80193;SDS011;69515;42.072;21.504;2023-10-19T13:20:26;6.53;;;3.22;;
80193;SDS011;69515;42.072;21.504;2023-10-19T13:22:53;10.05;;;3.97;;
80193;SDS011;69515;42.072;21.504;2023-10-19T13:25:21;4.00;;;2.50;;
80193;SDS011;69515;42.072;21.504;2023-10-19T13:28:05;4.47;;;2.70;;
80193;SDS011;69515;42.072;21.504;2023-10-19T13:30:37;7.88;;;2.60;;
80193;SDS011;69515;42.072;21.504;2023-10-19T13:33:04;7.72;;;2.45;;
80193;SDS011;69515;42.072;21.504;2023-10-19T13:35:32;4.22;;;2.35;;
80193;SDS011;69515;42.072;21.504;2023-10-19T13:37:58;7.18;;;3.05;;
80193;SDS011;69515;42.072;21.504;2023-10-19T13:40:26;7.63;;;2.97;;
80193;SDS011;69515;42.072;21.504;2023-10-19T13:42:56;8.25;;;3.33;;
80193;SDS011;69515;42.072;21.504;2023-10-19T13:45:23;4.68;;;2.90;;
80193;SDS011;69515;42.072;21.504;2023-10-19T13:47:49;6.05;;;2.65;;
80193;SDS011;69515;42.072;21.504;2023-10-19T13:50:22;9.95;;;4.82;;
80193;SDS011;69515;42.072;21.504;2023-10-19T13:52:50;9.02;;;4.05;;
80193;SDS011;69515;42.072;21.504;2023-10-19T13:55:17;11.80;;;3.25;;
80193;SDS011;69515;42.072;21.504;2023-10-19T13:57:45;5.25;;;3.17;;
80193;SDS011;69515;42.072;21.504;2023-10-19T14:00:14;4.40;;;2.53;;
80193;SDS011;69515;42.072;21.504;2023-10-19T14:02:48;5.22;;;2.97;;
80193;SDS011;69515;42.072;21.504;2023-10-19T14:05:14;5.00;;;2.67;;
80193;SDS011;69515;42.072;21.504;2023-10-19T14:07:41;5.57;;;2.80;;
80193;SDS011;69515;42.072;21.504;2023-10-19T14:10:08;5.68;;;3.40;;
80193;SDS011;69515;42.072;21.504;2023-10-19T14:12:39;6.07;;;3.33;;
80193;SDS011;69515;42.072;21.504;2023-10-19T14:15:25;4.72;;;2.60;;
80193;SDS011;69515;42.072;21.504;2023-10-19T14:17:53;6.20;;;3.10;;
80193;SDS011;69515;42.072;21.504;2023-10-19T14:20:21;5.82;;;2.65;;
80193;SDS011;69515;42.072;21.504;2023-10-19T14:22:50;6.50;;;2.75;;
80193;SDS011;69515;42.072;21.504;2023-10-19T14:25:18;4.32;;;2.60;;
80193;SDS011;69515;42.072;21.504;2023-10-19T14:27:47;4.30;;;2.40;;
80193;SDS011;69515;42.072;21.504;2023-10-19T14:30:14;6.20;;;2.90;;
80193;SDS011;69515;42.072;21.504;2023-10-19T14:32:42;5.80;;;2.72;;
80193;SDS011;69515;42.072;21.504;2023-10-19T14:35:08;4.35;;;2.67;;
80193;SDS011;69515;42.072;21.504;2023-10-19T14:37:39;5.57;;;3.17;;
80193;SDS011;69515;42.072;21.504;2023-10-19T14:40:18;4.82;;;3.00;;
80193;SDS011;69515;42.072;21.504;2023-10-19T14:48:56;6.03;;;2.70;;
80193;SDS011;69515;42.072;21.504;2023-10-19T14:51:24;4.40;;;2.55;;
80193;SDS011;69515;42.072;21.504;2023-10-19T14:53:50;9.00;;;2.88;;
80193;SDS011;69515;42.072;21.504;2023-10-19T14:56:16;5.15;;;2.90;;
80193;SDS011;69515;42.072;21.504;2023-10-19T14:58:43;6.82;;;2.88;;
80193;SDS011;69515;42.072;21.504;2023-10-19T15:01:09;5.57;;;2.88;;
80193;SDS011;69515;42.072;21.504;2023-10-19T15:03:42;5.97;;;3.65;;
80193;SDS011;69515;42.072;21.504;2023-10-19T15:06:08;6.38;;;2.95;;
80193;SDS011;69515;42.072;21.504;2023-10-19T15:08:35;4.63;;;2.80;;
80193;SDS011;69515;42.072;21.504;2023-10-19T15:11:02;4.18;;;2.65;;
80193;SDS011;69515;42.072;21.504;2023-10-19T15:13:28;5.00;;;2.53;;
80193;SDS011;69515;42.072;21.504;2023-10-19T15:15:55;5.40;;;2.80;;
80193;SDS011;69515;42.072;21.504;2023-10-19T15:18:22;4.47;;;2.88;;